GMFF

Fes-Saiss Airport

Airport
ICAO code
GMFF
IATA Code
FEZ
Summary
ICAO Region
AFI
ICAO Territory
Location

Oulad Tayeb, Fes-Meknes region

Serving
Fez
Elevation
1900 ft
Coordinates
33° 55' 38" N , 4° 58' 41" W
KCC
Metar
Observation
GMFF 081000Z 28004KT 9999 -RA SCT030 BKN100 14/11 Q1012 NOSIG
Station
Fes-Sais
Date/Time
2022-12-08 10:00:00
Wind direction
280°
Wind speed
04 kts
Lowest cloud amount
scattered clouds
Temperature
14°C
Dew point
11°C
Humidity
82%
QNH
1012 hPa
Weather condition
light rain

International airport serving Fez, the capital city of the Fès-Boulemane region in Morocco.

Climatology

Warm mediterranean climate (Köppen climate classification Csa)

Runways

Designator Length Width Surface Rops
9/27 3200 45 ASP Yes/Yes

Airport map

Aerial View

Airport accidents

SKYbrary Partners:

Safety knowledge contributed by: